createdAt,value
2018-08-17T00:02:00.569Z,48.35
2018-08-17T00:04:28.305Z,47.92
2018-08-17T00:06:56.077Z,47.76
2018-08-17T00:09:23.751Z,48.42
2018-08-17T00:11:51.405Z,48.54
2018-08-17T00:14:19.097Z,49.27
2018-08-17T00:16:46.993Z,48.99
2018-08-17T00:19:14.728Z,49.35
2018-08-17T00:21:42.408Z,49.27
2018-08-17T00:24:10.149Z,49.85
2018-08-17T00:26:37.818Z,50.17
2018-08-17T00:29:05.508Z,50.26
2018-08-17T00:31:33.120Z,50.80
2018-08-17T00:34:00.752Z,50.87
2018-08-17T00:36:28.452Z,50.50
2018-08-17T00:38:56.129Z,50.90
2018-08-17T00:41:30.648Z,51.00
2018-08-17T00:43:58.348Z,50.13
2018-08-17T00:46:26.030Z,49.98
2018-08-17T00:48:53.740Z,48.82
2018-08-17T00:51:21.414Z,48.60
2018-08-17T00:53:49.090Z,49.10
2018-08-17T00:56:16.754Z,49.47
2018-08-17T00:58:44.414Z,48.83
2018-08-17T01:01:12.162Z,48.26
2018-08-17T01:03:39.878Z,48.43
2018-08-17T01:06:07.500Z,48.31
2018-08-17T01:08:35.242Z,48.69
2018-08-17T01:11:02.915Z,48.03
2018-08-17T01:13:30.593Z,48.58
2018-08-17T01:15:58.267Z,48.70
2018-08-17T01:18:25.937Z,48.76
2018-08-17T01:20:53.579Z,48.44
2018-08-17T01:23:21.257Z,48.42
2018-08-17T01:25:48.889Z,48.29
2018-08-17T01:28:16.571Z,48.42
2018-08-17T01:30:44.204Z,48.92
2018-08-17T01:33:11.845Z,49.24
2018-08-17T01:35:39.494Z,49.27
2018-08-17T01:38:07.157Z,49.60
2018-08-17T01:40:34.744Z,49.46
2018-08-17T01:43:02.406Z,49.69
2018-08-17T01:45:30.070Z,49.79
2018-08-17T01:47:57.710Z,49.13
2018-08-17T01:50:25.368Z,49.46
2018-08-17T01:52:52.982Z,49.22
2018-08-17T01:55:20.674Z,49.72
2018-08-17T01:57:48.314Z,49.63
2018-08-17T02:00:16.011Z,50.06
2018-08-17T02:02:43.637Z,49.52
2018-08-17T02:05:11.333Z,49.85
2018-08-17T02:07:38.996Z,49.32
2018-08-17T02:10:09.077Z,49.61
2018-08-17T02:12:37.141Z,49.45
2018-08-17T02:15:04.895Z,49.32
2018-08-17T02:17:32.614Z,49.26
2018-08-17T02:20:00.241Z,49.83
2018-08-17T02:22:27.963Z,49.65
2018-08-17T02:24:55.593Z,50.19
2018-08-17T02:27:23.292Z,50.00
2018-08-17T02:29:51.199Z,50.11
2018-08-17T02:32:18.969Z,50.10
2018-08-17T02:34:46.794Z,50.28
2018-08-17T02:37:14.450Z,50.05
2018-08-17T02:39:42.089Z,50.47
2018-08-17T02:42:09.745Z,50.46
2018-08-17T02:44:37.539Z,50.07
2018-08-17T02:47:05.221Z,50.93
2018-08-17T02:49:32.894Z,50.84
2018-08-17T02:52:00.658Z,50.25
2018-08-17T02:54:28.564Z,50.60
2018-08-17T02:56:56.244Z,50.19
2018-08-17T02:59:23.963Z,50.31
2018-08-17T03:01:51.610Z,50.32
2018-08-17T03:04:19.368Z,49.99
2018-08-17T03:06:47.154Z,50.01
2018-08-17T03:09:14.827Z,50.63
2018-08-17T03:11:42.512Z,50.00
2018-08-17T03:14:10.282Z,50.58
2018-08-17T03:16:37.916Z,50.12
2018-08-17T03:19:05.556Z,50.33
2018-08-17T03:21:33.182Z,50.45
2018-08-17T03:24:00.774Z,50.50
2018-08-17T03:26:28.436Z,50.58
2018-08-17T03:28:56.116Z,50.42
2018-08-17T03:31:23.808Z,50.57
2018-08-17T03:33:51.474Z,50.10
2018-08-17T03:36:19.247Z,50.66
2018-08-17T03:38:46.988Z,50.08
2018-08-17T03:41:14.763Z,50.08
2018-08-17T03:43:42.543Z,50.08
2018-08-17T03:46:10.311Z,50.50
2018-08-17T03:48:37.985Z,50.29
2018-08-17T03:51:05.741Z,49.81
2018-08-17T03:53:33.443Z,49.85
2018-08-17T03:56:01.201Z,50.46
2018-08-17T03:58:28.917Z,50.24
2018-08-17T04:00:56.641Z,50.14
2018-08-17T04:03:24.267Z,50.12
2018-08-17T04:05:51.946Z,49.57
2018-08-17T04:08:19.584Z,50.15
2018-08-17T04:10:47.252Z,49.86
2018-08-17T04:13:14.845Z,49.91
2018-08-17T04:15:42.463Z,50.39
2018-08-17T04:18:10.155Z,49.78
2018-08-17T04:20:38.130Z,49.93
2018-08-17T04:23:06.166Z,50.09
2018-08-17T04:25:33.756Z,49.45
2018-08-17T04:28:01.572Z,49.40
2018-08-17T04:30:29.360Z,49.56
2018-08-17T04:32:57.004Z,48.93
2018-08-17T04:35:24.756Z,49.53
2018-08-17T04:37:52.342Z,49.39
2018-08-17T04:40:20.072Z,49.58
2018-08-17T04:42:47.687Z,49.19
2018-08-17T04:45:15.486Z,49.42
2018-08-17T04:47:43.166Z,49.12
2018-08-17T04:50:10.910Z,49.00
2018-08-17T04:52:39.458Z,49.04
2018-08-17T04:55:07.580Z,49.39
2018-08-17T04:57:35.602Z,48.21
2018-08-17T05:00:05.100Z,48.59
2018-08-17T05:02:32.721Z,48.21
2018-08-17T05:05:00.408Z,48.13
2018-08-17T05:07:28.073Z,47.26
2018-08-17T05:09:55.766Z,47.47
2018-08-17T05:12:23.438Z,46.97
2018-08-17T05:14:51.062Z,46.45
2018-08-17T05:17:18.721Z,46.70
2018-08-17T05:19:46.397Z,46.24
2018-08-17T05:22:14.012Z,45.94
2018-08-17T05:24:41.648Z,45.54
2018-08-17T05:27:09.272Z,45.23
2018-08-17T05:29:36.947Z,45.91
2018-08-17T05:32:04.931Z,44.98
2018-08-17T05:34:32.605Z,45.25
2018-08-17T05:37:00.231Z,44.88
2018-08-17T05:39:27.965Z,44.05
2018-08-17T05:41:55.774Z,44.17
2018-08-17T05:44:23.415Z,43.97
2018-08-17T05:46:51.057Z,43.95
2018-08-17T05:49:18.693Z,43.25
2018-08-17T05:51:46.397Z,42.76
2018-08-17T05:54:14.045Z,43.48
2018-08-17T05:56:41.754Z,42.99
2018-08-17T05:59:09.327Z,42.92
2018-08-17T06:01:37.061Z,41.95
2018-08-17T06:04:05.236Z,42.12
2018-08-17T06:06:32.917Z,41.49
2018-08-17T06:09:00.610Z,40.04
2018-08-17T06:11:28.393Z,41.13
2018-08-17T06:13:56.029Z,39.96
2018-08-17T06:16:23.668Z,40.00
2018-08-17T06:18:51.546Z,39.49
2018-08-17T06:21:19.134Z,39.39
2018-08-17T06:23:46.868Z,39.75
2018-08-17T06:26:14.529Z,38.21
2018-08-17T06:28:42.164Z,38.73
2018-08-17T06:31:09.805Z,38.85
2018-08-17T06:33:37.456Z,38.59
2018-08-17T06:36:05.296Z,38.02
2018-08-17T06:38:32.887Z,38.37
2018-08-17T06:41:00.507Z,37.71
2018-08-17T06:43:28.213Z,38.51
2018-08-17T06:45:55.921Z,38.33
2018-08-17T06:48:23.612Z,37.33
2018-08-17T06:50:51.379Z,38.46
2018-08-17T06:53:18.991Z,36.87
2018-08-17T06:55:46.654Z,37.13
2018-08-17T06:58:14.419Z,36.27
2018-08-17T07:00:42.086Z,36.26
2018-08-17T07:03:09.758Z,36.35
2018-08-17T07:05:37.449Z,36.71
2018-08-17T07:08:05.212Z,36.30
2018-08-17T07:10:32.868Z,36.43
2018-08-17T07:13:00.542Z,36.39
2018-08-17T07:15:28.291Z,36.14
2018-08-17T07:17:55.979Z,35.79
2018-08-17T07:20:23.642Z,34.90
2018-08-17T07:22:51.359Z,35.99
2018-08-17T07:25:19.116Z,35.82
2018-08-17T07:27:47.045Z,34.89
2018-08-17T07:30:14.637Z,35.79
2018-08-17T07:32:42.333Z,35.08
2018-08-17T07:35:10.457Z,34.79
2018-08-17T07:37:38.170Z,34.01
2018-08-17T07:40:06.111Z,34.23
2018-08-17T07:42:33.793Z,34.22
2018-08-17T07:45:01.432Z,34.06
2018-08-17T07:47:29.191Z,33.54
2018-08-17T07:49:56.799Z,34.50
2018-08-17T07:52:24.429Z,33.99
2018-08-17T07:54:52.102Z,33.87
2018-08-17T07:57:19.786Z,33.50
2018-08-17T07:59:47.729Z,32.66
2018-08-17T08:02:15.412Z,32.58
2018-08-17T08:04:43.123Z,33.81
2018-08-17T08:07:10.787Z,32.68
2018-08-17T08:09:38.508Z,31.84
2018-08-17T08:12:06.435Z,32.02
2018-08-17T08:14:34.014Z,30.53
2018-08-17T08:17:01.594Z,31.14
2018-08-17T08:19:29.205Z,31.60
2018-08-17T08:21:57.605Z,31.56
2018-08-17T08:24:25.228Z,31.58
2018-08-17T08:26:52.909Z,31.36
2018-08-17T08:29:20.523Z,31.06
2018-08-17T08:31:48.181Z,29.89
2018-08-17T08:34:15.857Z,29.56
2018-08-17T08:36:43.642Z,29.62
2018-08-17T08:39:12.677Z,29.08
2018-08-17T08:41:40.501Z,29.52
2018-08-17T08:44:08.153Z,28.60
2018-08-17T08:46:36.475Z,28.41
2018-08-17T08:49:04.405Z,29.40
2018-08-17T08:51:32.028Z,29.48
2018-08-17T08:53:59.656Z,28.37
2018-08-17T08:56:27.294Z,27.57
2018-08-17T08:58:54.954Z,28.07
2018-08-17T09:01:22.549Z,27.61
2018-08-17T09:03:50.170Z,27.77
2018-08-17T09:06:17.814Z,27.67
2018-08-17T09:08:45.458Z,26.78
2018-08-17T09:11:13.167Z,27.91
2018-08-17T09:13:40.835Z,26.40
2018-08-17T09:16:08.488Z,26.87
2018-08-17T09:18:36.129Z,26.53
2018-08-17T09:21:03.778Z,27.26
2018-08-17T09:23:31.382Z,26.87
2018-08-17T09:25:59.043Z,26.25
2018-08-17T09:28:27.017Z,26.83
2018-08-17T09:30:54.709Z,26.34
2018-08-17T09:33:22.297Z,26.75
2018-08-17T09:35:50.471Z,25.90
2018-08-17T09:38:18.097Z,25.45
2018-08-17T09:40:45.721Z,25.82
2018-08-17T09:43:13.285Z,24.94
2018-08-17T09:45:40.841Z,25.78
2018-08-17T09:48:08.752Z,25.32
2018-08-17T09:50:36.989Z,24.63
2018-08-17T09:53:05.364Z,24.93
2018-08-17T09:55:33.069Z,24.35
2018-08-17T09:58:01.258Z,24.21
2018-08-17T10:00:34.936Z,22.97
2018-08-17T10:03:08.349Z,22.64
2018-08-17T10:05:36.803Z,22.84
2018-08-17T10:08:10.424Z,22.77
2018-08-17T10:10:38.098Z,22.63
2018-08-17T10:13:05.995Z,21.95
2018-08-17T10:15:34.517Z,22.03
2018-08-17T10:18:02.154Z,23.34
2018-08-17T10:20:30.718Z,22.43
2018-08-17T10:22:58.306Z,21.30
2018-08-17T10:25:26.228Z,20.54
2018-08-17T10:27:55.642Z,21.55
2018-08-17T10:30:23.831Z,21.23
2018-08-17T10:32:58.594Z,20.47
2018-08-17T10:35:29.573Z,19.79
2018-08-17T10:37:58.453Z,19.53
2018-08-17T10:40:26.183Z,19.82
2018-08-17T10:42:54.296Z,19.18
2018-08-17T10:45:23.033Z,20.62
2018-08-17T10:47:51.339Z,20.58
2018-08-17T10:50:26.306Z,21.33
2018-08-17T10:52:55.360Z,22.19
2018-08-17T10:55:28.928Z,21.86
2018-08-17T10:57:56.693Z,20.98
2018-08-17T11:00:24.309Z,20.78
2018-08-17T11:02:52.013Z,20.83
2018-08-17T11:05:19.664Z,19.83
2018-08-17T11:07:48.335Z,20.29
2018-08-17T11:10:16.221Z,18.96
2018-08-17T11:12:45.701Z,19.21
2018-08-17T11:15:13.381Z,19.03
2018-08-17T11:17:42.206Z,19.81
2018-08-17T11:20:09.983Z,18.94
2018-08-17T11:22:37.708Z,18.27
2018-08-17T11:25:06.698Z,18.58
2018-08-17T11:27:34.531Z,19.23
2018-08-17T11:30:02.224Z,20.20
2018-08-17T11:32:29.949Z,20.32
2018-08-17T11:34:57.603Z,19.23
2018-08-17T11:37:25.213Z,19.90
2018-08-17T11:39:58.745Z,20.09
2018-08-17T11:42:26.628Z,20.32
2018-08-17T11:44:54.207Z,19.82
2018-08-17T11:47:22.557Z,20.10
2018-08-17T11:49:50.123Z,19.03
2018-08-17T11:52:17.734Z,17.17
2018-08-17T11:54:45.344Z,15.53
2018-08-17T11:57:13.962Z,15.55
2018-08-17T11:59:49.230Z,17.10
2018-08-17T12:02:17.928Z,16.33
2018-08-17T12:04:46.679Z,15.01
2018-08-17T12:07:14.333Z,12.64
2018-08-17T12:09:57.369Z,12.56
2018-08-17T12:12:24.849Z,10.09
2018-08-17T12:14:52.473Z,9.01
2018-08-17T12:17:20.265Z,8.14
2018-08-17T12:19:47.864Z,7.37
2018-08-17T12:22:15.429Z,7.31
2018-08-17T12:24:43.088Z,7.55
2018-08-17T12:27:11.999Z,6.91
2018-08-17T12:29:40.024Z,6.44
2018-08-17T12:32:08.353Z,5.21
2018-08-17T12:34:36.341Z,5.44
2018-08-17T12:37:04.209Z,7.91
2018-08-17T12:39:32.044Z,7.65
2018-08-17T12:41:59.659Z,7.87
2018-08-17T12:44:27.292Z,7.85
2018-08-17T12:46:55.966Z,10.56
2018-08-17T12:49:23.957Z,11.29
2018-08-17T12:51:51.632Z,13.75
2018-08-17T12:54:25.161Z,14.28
2018-08-17T12:56:53.191Z,14.03
2018-08-17T12:59:20.827Z,13.34
2018-08-17T13:01:48.547Z,13.62
2018-08-17T13:04:16.767Z,14.94
2018-08-17T13:06:44.920Z,15.00
2018-08-17T13:09:12.706Z,15.37
2018-08-17T13:11:47.799Z,14.63
2018-08-17T13:14:15.608Z,14.38
2018-08-17T13:16:43.609Z,14.13
2018-08-17T13:19:11.406Z,11.70
2018-08-17T13:21:38.976Z,9.57
2018-08-17T13:24:06.737Z,8.04
2018-08-17T13:26:34.325Z,6.95
2018-08-17T13:29:02.077Z,5.62
2018-08-17T13:31:30.807Z,5.42
2018-08-17T13:33:58.577Z,7.71
2018-08-17T13:36:26.374Z,8.51
2018-08-17T13:38:54.181Z,8.10
2018-08-17T13:41:21.866Z,7.23
2018-08-17T13:43:50.043Z,7.24
2018-08-17T13:46:17.671Z,7.58
2018-08-17T13:48:45.299Z,8.65
2018-08-17T13:51:13.277Z,9.79
2018-08-17T13:53:40.961Z,12.05
2018-08-17T13:56:08.631Z,10.71
2018-08-17T13:58:36.635Z,9.38
2018-08-17T14:01:04.357Z,8.18
2018-08-17T14:03:32.952Z,8.04
2018-08-17T14:06:00.687Z,6.47
2018-08-17T14:08:28.367Z,6.09
2018-08-17T14:10:56.000Z,6.16
2018-08-17T14:13:23.686Z,5.13
2018-08-17T14:15:51.291Z,5.94
2018-08-17T14:18:18.892Z,5.00
2018-08-17T14:20:46.547Z,4.97
2018-08-17T14:23:14.159Z,4.32
2018-08-17T14:25:41.834Z,4.90
2018-08-17T14:28:09.540Z,4.41
2018-08-17T14:30:37.214Z,4.97
2018-08-17T14:33:05.034Z,5.02
2018-08-17T14:35:32.709Z,4.89
2018-08-17T14:38:00.334Z,5.05
2018-08-17T14:40:28.013Z,4.68
2018-08-17T14:42:55.628Z,4.49
2018-08-17T14:45:23.708Z,5.89
2018-08-17T14:47:51.288Z,5.81
2018-08-17T14:50:18.989Z,6.36
2018-08-17T14:52:46.628Z,5.91
2018-08-17T14:55:14.288Z,6.23
2018-08-17T14:57:41.860Z,5.03
2018-08-17T15:00:12.524Z,4.68
2018-08-17T15:02:40.210Z,3.76
2018-08-17T15:05:09.996Z,3.00
2018-08-17T15:07:37.749Z,3.34
2018-08-17T15:10:06.792Z,3.22
2018-08-17T15:12:34.448Z,2.82
2018-08-17T15:15:02.119Z,3.09
2018-08-17T15:17:29.803Z,4.96
2018-08-17T15:19:57.479Z,5.82
2018-08-17T15:22:25.119Z,6.50
2018-08-17T15:24:53.005Z,7.04
2018-08-17T15:27:20.637Z,6.47
2018-08-17T15:29:48.309Z,6.36
2018-08-17T15:32:15.992Z,6.76
2018-08-17T15:34:43.585Z,6.64
2018-08-17T15:37:11.237Z,5.93
2018-08-17T15:39:38.936Z,5.18
2018-08-17T15:42:07.427Z,5.56
2018-08-17T15:44:34.999Z,5.45
2018-08-17T15:47:02.590Z,5.47
2018-08-17T15:49:35.365Z,5.90
2018-08-17T15:52:04.332Z,5.55
2018-08-17T15:54:32.026Z,5.38
2018-08-17T15:56:59.950Z,5.48
2018-08-17T15:59:27.678Z,4.79
2018-08-17T16:01:55.448Z,4.73
2018-08-17T16:04:23.106Z,4.94
2018-08-17T16:06:50.809Z,4.67
2018-08-17T16:09:18.510Z,5.02
2018-08-17T16:11:46.150Z,5.49
2018-08-17T16:14:13.821Z,5.59
2018-08-17T16:16:41.453Z,5.61
2018-08-17T16:19:09.205Z,5.01
2018-08-17T16:21:36.842Z,4.35
2018-08-17T16:24:05.425Z,5.51
2018-08-17T16:26:33.396Z,5.93
2018-08-17T16:29:01.733Z,6.87
2018-08-17T16:31:35.090Z,7.50
2018-08-17T16:34:02.881Z,6.92
2018-08-17T16:36:30.721Z,7.60
2018-08-17T16:38:58.465Z,7.46
2018-08-17T16:41:26.087Z,7.06
2018-08-17T16:43:53.753Z,7.18
2018-08-17T16:46:21.494Z,7.69
2018-08-17T16:48:49.104Z,7.81
2018-08-17T16:51:16.758Z,8.43
2018-08-17T16:53:44.352Z,8.88
2018-08-17T16:56:11.949Z,8.67
2018-08-17T16:58:40.479Z,9.56
2018-08-17T17:01:08.153Z,10.10
2018-08-17T17:03:35.811Z,10.11
2018-08-17T17:06:04.519Z,10.10
2018-08-17T17:08:32.461Z,10.16
2018-08-17T17:11:00.939Z,10.20
2018-08-17T17:13:28.690Z,10.07
2018-08-17T17:15:56.301Z,10.62
2018-08-17T17:18:24.042Z,11.92
2018-08-17T17:20:51.653Z,11.86
2018-08-17T17:23:19.223Z,12.32
2018-08-17T17:25:46.928Z,13.68
2018-08-17T17:28:15.456Z,14.13
2018-08-17T17:30:49.215Z,15.06
2018-08-17T17:33:16.861Z,15.14
2018-08-17T17:35:44.871Z,15.98
2018-08-17T17:38:12.695Z,16.86
2018-08-17T17:40:40.813Z,17.47
2018-08-17T17:43:08.768Z,17.78
2018-08-17T17:45:36.859Z,18.93
2018-08-17T17:48:04.658Z,19.55
2018-08-17T17:50:33.278Z,20.22
2018-08-17T17:53:01.827Z,19.94
2018-08-17T17:55:40.615Z,22.27
2018-08-17T17:58:08.689Z,23.34
2018-08-17T18:00:36.323Z,21.47
2018-08-17T18:03:03.965Z,24.60
2018-08-17T18:05:31.519Z,23.54
2018-08-17T18:08:05.677Z,23.94
2018-08-17T18:10:33.304Z,25.71
2018-08-17T18:13:01.142Z,24.30
2018-08-17T18:15:28.829Z,24.46
2018-08-17T18:17:57.567Z,25.12
2018-08-17T18:20:25.269Z,25.80
2018-08-17T18:22:53.001Z,25.51
2018-08-17T18:25:20.769Z,26.19
2018-08-17T18:27:48.958Z,25.81
2018-08-17T18:30:16.614Z,28.16
2018-08-17T18:32:44.598Z,26.45
2018-08-17T18:35:12.317Z,27.40
2018-08-17T18:37:40.020Z,27.48
2018-08-17T18:40:09.794Z,27.60
2018-08-17T18:42:37.531Z,27.63
2018-08-17T18:45:05.547Z,28.06
2018-08-17T18:47:33.230Z,28.67
2018-08-17T18:50:00.871Z,28.21
2018-08-17T18:52:28.609Z,28.30
2018-08-17T18:54:56.345Z,28.17
2018-08-17T18:57:23.989Z,29.28
2018-08-17T18:59:51.676Z,29.71
2018-08-17T19:02:19.331Z,29.64
2018-08-17T19:04:46.990Z,29.87
2018-08-17T19:07:14.655Z,29.38
2018-08-17T19:09:42.831Z,29.29
2018-08-17T19:12:10.490Z,30.22
2018-08-17T19:14:46.250Z,30.43
2018-08-17T19:17:19.950Z,29.89
2018-08-17T19:19:48.031Z,30.54
2018-08-17T19:22:15.840Z,30.46
2018-08-17T19:24:43.490Z,30.23
2018-08-17T19:27:20.996Z,30.15
2018-08-17T19:29:49.940Z,30.46
2018-08-17T19:32:17.653Z,30.71
2018-08-17T19:34:45.287Z,30.99
2018-08-17T19:37:13.103Z,31.09
2018-08-17T19:39:44.415Z,30.94
2018-08-17T19:42:12.366Z,30.96
2018-08-17T19:44:40.312Z,31.64
2018-08-17T19:47:08.507Z,31.12
2018-08-17T19:49:36.335Z,31.32
2018-08-17T19:52:04.141Z,30.95
2018-08-17T19:54:31.869Z,31.79
2018-08-17T19:56:59.640Z,31.33
2018-08-17T19:59:27.383Z,31.71
2018-08-17T20:01:55.098Z,31.97
2018-08-17T20:04:22.741Z,31.84
2018-08-17T20:06:50.394Z,31.96
2018-08-17T20:09:18.149Z,32.59
2018-08-17T20:11:45.818Z,33.27
2018-08-17T20:14:13.453Z,33.29
2018-08-17T20:16:41.208Z,34.02
2018-08-17T20:19:09.003Z,33.99
2018-08-17T20:21:36.686Z,34.14
2018-08-17T20:24:04.459Z,33.74
2018-08-17T20:26:32.331Z,33.87
2018-08-17T20:28:59.726Z,34.60
2018-08-17T20:31:27.358Z,34.90
2018-08-17T20:33:55.106Z,35.18
2018-08-17T20:36:23.256Z,35.69
2018-08-17T20:38:50.934Z,35.50
2018-08-17T20:41:18.815Z,35.79
2018-08-17T20:43:46.989Z,36.28
2018-08-17T20:46:14.655Z,37.33
2018-08-17T20:48:49.084Z,37.72
2018-08-17T20:51:22.768Z,38.38
2018-08-17T20:53:59.038Z,37.57
2018-08-17T20:56:27.094Z,37.49
2018-08-17T20:58:54.940Z,38.03
2018-08-17T21:01:22.956Z,38.38
2018-08-17T21:03:50.823Z,38.69
2018-08-17T21:06:18.493Z,39.19
2018-08-17T21:08:46.085Z,40.12
2018-08-17T21:11:13.789Z,41.10
2018-08-17T21:13:48.211Z,41.88
2018-08-17T21:16:15.909Z,43.02
2018-08-17T21:18:43.662Z,42.94
2018-08-17T21:21:11.327Z,44.26
2018-08-17T21:23:39.186Z,43.92
2018-08-17T21:26:06.844Z,45.16
2018-08-17T21:28:34.450Z,45.72
2018-08-17T21:31:02.095Z,45.85
2018-08-17T21:33:29.904Z,47.13
2018-08-17T21:35:57.618Z,46.95
2018-08-17T21:38:25.283Z,47.69
2018-08-17T21:40:52.938Z,47.82
2018-08-17T21:43:20.501Z,48.08
2018-08-17T21:45:49.770Z,47.77
2018-08-17T21:48:21.960Z,47.99
2018-08-17T21:50:49.706Z,48.37
2018-08-17T21:53:17.323Z,49.52
2018-08-17T21:55:44.920Z,50.43
2018-08-17T21:58:12.608Z,53.33
2018-08-17T22:00:40.318Z,55.73
2018-08-17T22:03:18.101Z,55.76
2018-08-17T22:05:45.657Z,56.27
2018-08-17T22:08:13.253Z,57.71
2018-08-17T22:10:40.825Z,59.60
2018-08-17T22:13:26.254Z,63.60
2018-08-17T22:15:53.889Z,65.38
2018-08-17T22:18:21.519Z,65.56
2018-08-17T22:20:49.152Z,65.53
2018-08-17T22:23:16.741Z,65.43
2018-08-17T22:25:44.391Z,65.82
2018-08-17T22:28:12.026Z,64.57
2018-08-17T22:30:39.721Z,63.89
2018-08-17T22:33:07.313Z,63.86
2018-08-17T22:35:35.957Z,64.92
2018-08-17T22:38:03.489Z,66.10
2018-08-17T22:40:31.127Z,65.43
2018-08-17T22:42:58.785Z,65.28
2018-08-17T22:45:26.413Z,67.15
2018-08-17T22:47:54.019Z,82.83
2018-08-17T22:50:21.677Z,90.71
2018-08-17T22:52:49.247Z,91.85
2018-08-17T22:55:16.921Z,92.99
2018-08-17T22:57:44.439Z,91.86
2018-08-17T23:00:19.179Z,92.19
2018-08-17T23:02:48.165Z,91.85
2018-08-17T23:05:17.690Z,90.79
2018-08-17T23:07:45.324Z,91.79
2018-08-17T23:10:16.603Z,91.19
2018-08-17T23:12:45.257Z,90.46
2018-08-17T23:15:13.112Z,89.41
2018-08-17T23:17:43.475Z,89.74
2018-08-17T23:20:11.117Z,90.21
2018-08-17T23:22:47.482Z,88.79
2018-08-17T23:25:15.193Z,88.14
2018-08-17T23:27:42.830Z,87.02
2018-08-17T23:30:10.492Z,87.40
2018-08-17T23:32:38.137Z,86.17
2018-08-17T23:35:06.208Z,85.85
2018-08-17T23:37:33.749Z,86.27
2018-08-17T23:40:01.294Z,85.78
2018-08-17T23:42:28.888Z,86.26
2018-08-17T23:44:56.469Z,85.52
2018-08-17T23:47:24.053Z,85.18
2018-08-17T23:49:51.705Z,84.90
2018-08-17T23:52:19.283Z,85.44
2018-08-17T23:54:46.873Z,84.76
2018-08-17T23:57:15.184Z,84.96
2018-08-17T23:59:42.750Z,84.31
